createdAt,value
2023-04-28T00:01:12.638Z,76.52
2023-04-28T00:03:39.746Z,77.43
2023-04-28T00:06:06.427Z,77.87
2023-04-28T00:08:33.341Z,79.23
2023-04-28T00:11:00.807Z,79.37
2023-04-28T00:13:27.447Z,79.14
2023-04-28T00:15:54.484Z,79.22
2023-04-28T00:18:21.675Z,79.90
2023-04-28T00:20:48.658Z,80.05
2023-04-28T00:23:16.002Z,79.59
2023-04-28T00:25:42.593Z,78.89
2023-04-28T00:28:09.257Z,79.57
2023-04-28T00:30:35.876Z,79.94
2023-04-28T00:33:02.699Z,80.70
2023-04-28T00:35:29.397Z,81.21
2023-04-28T00:37:55.955Z,81.23
2023-04-28T00:40:22.591Z,80.76
2023-04-28T00:42:49.137Z,79.75
2023-04-28T00:45:15.768Z,80.16
2023-04-28T00:47:42.654Z,80.43
2023-04-28T00:50:10.670Z,80.48
2023-04-28T00:52:39.453Z,79.82
2023-04-28T00:55:07.744Z,80.61
2023-04-28T00:57:34.392Z,80.63
2023-04-28T01:00:01.454Z,80.46
2023-04-28T01:02:30.115Z,79.77
2023-04-28T01:04:57.384Z,80.91
2023-04-28T01:07:23.970Z,81.75
2023-04-28T01:09:51.311Z,83.06
2023-04-28T01:12:17.930Z,82.95
2023-04-28T01:14:45.272Z,83.58
2023-04-28T01:17:12.561Z,84.45
2023-04-28T01:19:39.153Z,84.62
2023-04-28T01:22:05.716Z,84.95
2023-04-28T01:24:32.470Z,84.30
2023-04-28T01:26:59.024Z,84.36
2023-04-28T01:29:25.676Z,84.69
2023-04-28T01:31:52.352Z,84.34
2023-04-28T01:34:18.997Z,84.39
2023-04-28T01:36:46.124Z,84.67
2023-04-28T01:39:12.734Z,84.95
2023-04-28T01:41:39.318Z,84.82
2023-04-28T01:44:07.671Z,84.63
2023-04-28T01:46:34.776Z,84.51
2023-04-28T01:49:01.500Z,84.02
2023-04-28T01:51:28.087Z,84.42
2023-04-28T01:53:54.707Z,85.07
2023-04-28T01:56:21.355Z,85.18
2023-04-28T01:58:47.953Z,85.29
2023-04-28T02:01:14.610Z,85.13
2023-04-28T02:03:41.396Z,85.15
2023-04-28T02:06:08.112Z,85.49
2023-04-28T02:08:34.689Z,85.65
2023-04-28T02:11:01.792Z,84.95
2023-04-28T02:13:28.461Z,85.31
2023-04-28T02:15:55.109Z,86.11
2023-04-28T02:18:21.812Z,85.16
2023-04-28T02:20:48.401Z,85.41
2023-04-28T02:23:14.975Z,85.26
2023-04-28T02:25:41.553Z,85.94
2023-04-28T02:28:08.109Z,86.09
2023-04-28T02:30:34.737Z,86.49
2023-04-28T02:33:01.374Z,86.71
2023-04-28T02:35:28.345Z,86.37
2023-04-28T02:37:54.890Z,87.06
2023-04-28T02:40:21.552Z,86.79
2023-04-28T02:42:48.090Z,86.48
2023-04-28T02:45:14.767Z,86.69
2023-04-28T02:47:41.951Z,87.04
2023-04-28T02:50:09.139Z,86.92
2023-04-28T02:52:35.840Z,86.98
2023-04-28T02:55:03.839Z,87.55
2023-04-28T02:57:30.754Z,87.54
2023-04-28T02:59:57.406Z,86.89
2023-04-28T03:02:24.067Z,87.72
2023-04-28T03:04:50.799Z,87.35
2023-04-28T03:07:17.416Z,87.28
2023-04-28T03:09:46.071Z,87.42
2023-04-28T03:12:12.673Z,87.39
2023-04-28T03:14:39.214Z,87.66
2023-04-28T03:17:05.752Z,87.43
2023-04-28T03:19:33.416Z,87.15
2023-04-28T03:21:59.943Z,86.90
2023-04-28T03:24:26.780Z,87.07
2023-04-28T03:26:53.498Z,87.28
2023-04-28T03:29:20.109Z,86.94
2023-04-28T03:31:46.712Z,87.22
2023-04-28T03:34:13.485Z,86.53
2023-04-28T03:36:40.111Z,86.58
2023-04-28T03:39:06.668Z,86.75
2023-04-28T03:41:33.187Z,87.81
2023-04-28T03:43:59.799Z,88.12
2023-04-28T03:46:26.483Z,88.11
2023-04-28T03:48:53.680Z,88.02
2023-04-28T03:51:20.291Z,88.31
2023-04-28T03:53:46.895Z,88.43
2023-04-28T03:56:13.514Z,88.43
2023-04-28T03:58:40.104Z,88.74
2023-04-28T04:01:06.688Z,88.97
2023-04-28T04:03:33.439Z,89.33
2023-04-28T04:06:00.547Z,89.25
2023-04-28T04:08:27.165Z,89.06
2023-04-28T04:10:54.967Z,89.22
2023-04-28T04:13:22.465Z,89.65
2023-04-28T04:15:50.452Z,89.87
2023-04-28T04:18:17.067Z,89.53
2023-04-28T04:20:43.764Z,89.68
2023-04-28T04:23:10.322Z,89.47
2023-04-28T04:25:36.945Z,89.47
2023-04-28T04:28:03.715Z,89.24
2023-04-28T04:30:30.294Z,89.02
2023-04-28T04:32:56.955Z,89.01
2023-04-28T04:35:25.899Z,88.42
2023-04-28T04:37:52.435Z,88.82
2023-04-28T04:40:19.221Z,88.98
2023-04-28T04:42:45.865Z,88.45
2023-04-28T04:45:12.457Z,87.90
2023-04-28T04:47:39.254Z,87.80
2023-04-28T04:50:06.721Z,87.36
2023-04-28T04:52:33.443Z,87.38
2023-04-28T04:55:00.187Z,86.42
2023-04-28T04:57:27.295Z,86.25
2023-04-28T04:59:53.907Z,85.92
2023-04-28T05:02:20.629Z,86.60
2023-04-28T05:04:47.391Z,86.63
2023-04-28T05:07:14.355Z,87.43
2023-04-28T05:09:40.912Z,87.29
2023-04-28T05:12:07.684Z,87.78
2023-04-28T05:14:34.285Z,87.48
2023-04-28T05:17:00.894Z,86.52
2023-04-28T05:19:27.560Z,87.01
2023-04-28T05:21:54.940Z,86.95
2023-04-28T05:24:23.710Z,87.14
2023-04-28T05:26:51.813Z,86.93
2023-04-28T05:29:18.562Z,86.96
2023-04-28T05:31:45.347Z,85.75
2023-04-28T05:34:12.013Z,83.58
2023-04-28T05:36:38.592Z,82.40
2023-04-28T05:39:05.577Z,81.36
2023-04-28T05:41:32.134Z,79.30
2023-04-28T05:43:58.737Z,75.68
2023-04-28T05:46:30.573Z,77.00
2023-04-28T05:48:58.037Z,76.75
2023-04-28T05:51:24.694Z,75.32
2023-04-28T05:53:52.593Z,75.26
2023-04-28T05:56:19.277Z,73.42
2023-04-28T05:58:47.214Z,72.80
2023-04-28T06:01:13.806Z,74.23
2023-04-28T06:03:41.897Z,73.83
2023-04-28T06:06:11.978Z,70.95
2023-04-28T06:08:39.012Z,68.99
2023-04-28T06:11:06.160Z,67.01
2023-04-28T06:13:33.051Z,67.48
2023-04-28T06:15:59.726Z,64.74
2023-04-28T06:18:27.082Z,64.67
2023-04-28T06:20:53.761Z,63.10
2023-04-28T06:23:20.340Z,63.78
2023-04-28T06:25:47.026Z,62.37
2023-04-28T06:28:14.975Z,62.12
2023-04-28T06:30:41.852Z,62.58
2023-04-28T06:33:09.075Z,60.90
2023-04-28T06:35:36.627Z,60.39
2023-04-28T06:38:04.634Z,59.82
2023-04-28T06:40:31.814Z,59.95
2023-04-28T06:42:58.395Z,59.76
2023-04-28T06:45:25.220Z,58.95
2023-04-28T06:47:52.490Z,60.33
2023-04-28T06:50:19.113Z,58.47
2023-04-28T06:52:45.704Z,60.57
2023-04-28T06:55:16.784Z,57.89
2023-04-28T06:57:43.855Z,57.76
2023-04-28T07:00:11.398Z,57.77
2023-04-28T07:02:38.247Z,58.02
2023-04-28T07:05:05.458Z,56.00
2023-04-28T07:07:32.289Z,54.57
2023-04-28T07:09:59.140Z,54.42
2023-04-28T07:12:25.885Z,54.74
2023-04-28T07:14:52.524Z,54.00
2023-04-28T07:17:19.386Z,55.10
2023-04-28T07:19:45.947Z,51.07
2023-04-28T07:22:12.683Z,52.51
2023-04-28T07:24:39.475Z,50.58
2023-04-28T07:27:06.225Z,47.80
2023-04-28T07:29:35.049Z,48.49
2023-04-28T07:32:06.839Z,48.31
2023-04-28T07:34:35.816Z,50.47
2023-04-28T07:37:03.582Z,49.52
2023-04-28T07:39:32.033Z,49.70
2023-04-28T07:41:59.239Z,48.21
2023-04-28T07:44:25.915Z,48.28
2023-04-28T07:46:53.697Z,47.94
2023-04-28T07:49:20.475Z,44.14
2023-04-28T07:51:47.316Z,41.60
2023-04-28T07:54:13.895Z,43.31
2023-04-28T07:56:40.495Z,45.11
2023-04-28T07:59:07.032Z,45.14
2023-04-28T08:01:33.689Z,44.20
2023-04-28T08:04:00.612Z,45.27
2023-04-28T08:06:27.751Z,44.97
2023-04-28T08:08:55.797Z,43.99
2023-04-28T08:11:22.824Z,41.56
2023-04-28T08:13:49.555Z,41.83
2023-04-28T08:16:16.870Z,42.79
2023-04-28T08:18:44.415Z,42.53
2023-04-28T08:21:11.117Z,40.04
2023-04-28T08:23:37.757Z,41.14
2023-04-28T08:26:04.552Z,42.38
2023-04-28T08:28:31.372Z,42.04
2023-04-28T08:30:58.618Z,40.50
2023-04-28T08:33:25.204Z,42.02
2023-04-28T08:35:51.841Z,39.65
2023-04-28T08:38:18.493Z,40.94
2023-04-28T08:40:45.497Z,38.98
2023-04-28T08:43:12.207Z,36.17
2023-04-28T08:45:44.444Z,37.32
2023-04-28T08:48:22.356Z,37.19
2023-04-28T08:50:51.390Z,35.95
2023-04-28T08:53:25.456Z,35.53
2023-04-28T08:55:57.080Z,37.01
2023-04-28T08:58:24.920Z,34.93
2023-04-28T09:00:54.938Z,35.53
2023-04-28T09:03:22.197Z,36.74
2023-04-28T09:05:49.351Z,35.90
2023-04-28T09:08:16.115Z,35.88
2023-04-28T09:10:42.864Z,34.45
2023-04-28T09:13:09.690Z,35.41
2023-04-28T09:15:39.309Z,34.42
2023-04-28T09:18:08.101Z,34.26
2023-04-28T09:20:37.241Z,33.97
2023-04-28T09:23:15.988Z,35.16
2023-04-28T09:26:05.698Z,34.51
2023-04-28T09:28:33.964Z,32.72
2023-04-28T09:31:01.189Z,33.76
2023-04-28T09:33:28.004Z,29.75
2023-04-28T09:35:55.049Z,30.75
2023-04-28T09:38:23.229Z,30.43
2023-04-28T09:40:56.829Z,30.80
2023-04-28T09:43:31.352Z,31.75
2023-04-28T09:46:01.486Z,31.47
2023-04-28T09:48:29.313Z,31.63
2023-04-28T09:50:56.780Z,31.22
2023-04-28T09:53:24.754Z,30.09
2023-04-28T09:55:53.937Z,31.79
2023-04-28T09:58:21.979Z,29.63
2023-04-28T10:00:56.658Z,30.83
2023-04-28T10:03:28.523Z,31.21
2023-04-28T10:05:58.275Z,31.26
2023-04-28T10:08:27.445Z,31.19
2023-04-28T10:10:55.511Z,33.49
2023-04-28T10:13:23.289Z,31.12
2023-04-28T10:15:51.276Z,29.79
2023-04-28T10:18:18.553Z,29.24
2023-04-28T10:20:48.662Z,30.89
2023-04-28T10:23:53.881Z,30.08
2023-04-28T10:26:22.047Z,29.47
2023-04-28T10:28:50.726Z,29.72
2023-04-28T10:31:20.770Z,29.97
2023-04-28T10:33:47.933Z,29.99
2023-04-28T10:36:46.932Z,31.98
2023-04-28T10:39:14.310Z,29.55
2023-04-28T10:41:41.789Z,30.00
2023-04-28T10:44:29.962Z,30.29
2023-04-28T10:47:10.909Z,30.14
2023-04-28T10:49:57.751Z,30.79
2023-04-28T10:52:33.563Z,29.31
2023-04-28T10:55:28.959Z,30.28
2023-04-28T10:58:15.538Z,30.77
2023-04-28T11:00:47.805Z,31.00
2023-04-28T11:03:49.323Z,30.43
2023-04-28T11:06:29.246Z,29.99
2023-04-28T11:09:15.248Z,30.98
2023-04-28T11:12:11.284Z,30.89
2023-04-28T11:14:40.611Z,29.65
2023-04-28T11:17:09.733Z,28.82
2023-04-28T11:19:37.717Z,28.99
2023-04-28T11:22:11.765Z,29.00
2023-04-28T11:24:38.472Z,29.98
2023-04-28T11:27:05.272Z,30.43
2023-04-28T11:29:33.405Z,30.73
2023-04-28T11:32:00.381Z,31.86
2023-04-28T11:34:27.044Z,31.10
2023-04-28T11:36:54.901Z,31.34
2023-04-28T11:39:32.819Z,30.09
2023-04-28T11:42:02.441Z,31.00
2023-04-28T11:44:31.224Z,32.69
2023-04-28T11:47:03.248Z,31.57
2023-04-28T11:49:44.650Z,31.84
2023-04-28T11:52:12.162Z,32.11
2023-04-28T11:54:38.957Z,31.52
2023-04-28T11:57:06.638Z,31.07
2023-04-28T11:59:35.005Z,30.86
2023-04-28T12:02:04.740Z,30.21
2023-04-28T12:04:39.360Z,31.00
2023-04-28T12:07:14.167Z,30.34
2023-04-28T12:09:46.249Z,30.85
2023-04-28T12:12:39.963Z,31.55
2023-04-28T12:15:12.587Z,31.81
2023-04-28T12:17:41.472Z,32.08
2023-04-28T12:20:11.983Z,31.73
2023-04-28T12:22:51.332Z,31.61
2023-04-28T12:25:19.656Z,32.56
2023-04-28T12:28:02.719Z,33.98
2023-04-28T12:30:34.523Z,32.47
2023-04-28T12:33:01.177Z,32.49
2023-04-28T12:35:29.051Z,32.02
2023-04-28T12:37:56.874Z,32.70
2023-04-28T12:40:24.565Z,32.79
2023-04-28T12:42:51.589Z,32.29
2023-04-28T12:45:18.633Z,31.99
2023-04-28T12:47:45.273Z,31.58
2023-04-28T12:50:12.330Z,31.94
2023-04-28T12:52:38.925Z,32.24
2023-04-28T12:55:06.077Z,31.45
2023-04-28T12:57:32.709Z,31.23
2023-04-28T12:59:59.320Z,30.61
2023-04-28T13:02:26.091Z,31.46
2023-04-28T13:04:53.560Z,33.67
2023-04-28T13:07:20.460Z,32.19
2023-04-28T13:09:47.794Z,31.92
2023-04-28T13:12:14.936Z,29.47
2023-04-28T13:14:41.964Z,29.87
2023-04-28T13:17:09.217Z,30.75
2023-04-28T13:19:36.114Z,31.47
2023-04-28T13:22:05.263Z,29.81
2023-04-28T13:24:33.538Z,29.58
2023-04-28T13:27:00.427Z,29.73
2023-04-28T13:29:27.008Z,30.96
2023-04-28T13:31:53.620Z,30.03
2023-04-28T13:34:20.668Z,28.97
2023-04-28T13:36:50.702Z,29.40
2023-04-28T13:39:20.210Z,30.19
2023-04-28T13:41:47.003Z,30.17
2023-04-28T13:44:13.841Z,30.93
2023-04-28T13:46:40.504Z,30.58
2023-04-28T13:49:07.882Z,30.39
2023-04-28T13:51:34.450Z,30.31
2023-04-28T13:54:04.399Z,30.48
2023-04-28T13:56:32.177Z,31.18
2023-04-28T13:58:58.971Z,31.75
2023-04-28T14:01:25.751Z,31.94
2023-04-28T14:03:52.617Z,31.82
2023-04-28T14:06:19.728Z,30.27
2023-04-28T14:08:46.410Z,28.94
2023-04-28T14:11:12.996Z,29.85
2023-04-28T14:13:39.631Z,28.72
2023-04-28T14:16:07.219Z,27.73
2023-04-28T14:18:34.422Z,29.68
2023-04-28T14:21:02.303Z,31.34
2023-04-28T14:23:29.852Z,29.39
2023-04-28T14:25:58.056Z,29.76
2023-04-28T14:28:24.839Z,29.61
2023-04-28T14:30:54.339Z,29.19
2023-04-28T14:33:21.222Z,29.11
2023-04-28T14:35:48.125Z,29.46
2023-04-28T14:38:14.844Z,29.42
2023-04-28T14:40:43.047Z,29.37
2023-04-28T14:43:09.661Z,30.18
2023-04-28T14:45:38.145Z,31.03
2023-04-28T14:48:06.780Z,29.82
2023-04-28T14:50:33.711Z,29.19
2023-04-28T14:53:05.406Z,29.80
2023-04-28T14:55:32.800Z,29.98
2023-04-28T14:57:59.492Z,30.04
2023-04-28T15:00:26.113Z,29.80
2023-04-28T15:02:53.253Z,30.71
2023-04-28T15:05:20.015Z,29.68
2023-04-28T15:07:46.697Z,30.32
2023-04-28T15:10:13.259Z,30.51
2023-04-28T15:12:40.082Z,29.99
2023-04-28T15:15:07.720Z,31.31
2023-04-28T15:17:34.625Z,30.94
2023-04-28T15:20:01.763Z,31.70
2023-04-28T15:22:28.326Z,32.34
2023-04-28T15:24:56.043Z,32.66
2023-04-28T15:27:23.257Z,34.59
2023-04-28T15:29:50.474Z,33.00
2023-04-28T15:32:17.057Z,33.61
2023-04-28T15:34:44.237Z,33.20
2023-04-28T15:37:38.533Z,33.58
2023-04-28T15:40:05.898Z,34.05
2023-04-28T15:42:32.876Z,33.96
2023-04-28T15:44:59.789Z,35.55
2023-04-28T15:47:26.341Z,35.52
2023-04-28T15:49:52.963Z,35.64
2023-04-28T15:52:19.698Z,35.85
2023-04-28T15:54:46.577Z,36.02
2023-04-28T15:57:13.156Z,36.17
2023-04-28T15:59:41.149Z,37.00
2023-04-28T16:02:08.211Z,36.30
2023-04-28T16:04:35.047Z,36.61
2023-04-28T16:07:02.506Z,37.55
2023-04-28T16:09:29.633Z,37.47
2023-04-28T16:11:59.396Z,37.21
2023-04-28T16:14:26.951Z,37.62
2023-04-28T16:16:53.958Z,37.82
2023-04-28T16:19:21.686Z,37.59
2023-04-28T16:21:48.339Z,37.63
2023-04-28T16:24:14.911Z,37.74
2023-04-28T16:26:41.592Z,38.09
2023-04-28T16:29:08.163Z,37.78
2023-04-28T16:31:34.864Z,37.78
2023-04-28T16:34:01.462Z,37.72
2023-04-28T16:36:32.974Z,38.37
2023-04-28T16:38:59.720Z,37.95
2023-04-28T16:41:26.396Z,37.95
2023-04-28T16:43:52.961Z,38.52
2023-04-28T16:46:19.542Z,38.53
2023-04-28T16:48:46.141Z,39.67
2023-04-28T16:51:12.741Z,38.56
2023-04-28T16:53:39.312Z,38.92
2023-04-28T16:56:08.299Z,40.15
2023-04-28T16:58:36.603Z,39.79
2023-04-28T17:01:03.273Z,39.51
2023-04-28T17:03:29.963Z,39.60
2023-04-28T17:05:56.808Z,39.46
2023-04-28T17:08:23.376Z,39.67
2023-04-28T17:10:49.922Z,40.07
2023-04-28T17:13:16.726Z,40.02
2023-04-28T17:15:43.390Z,40.14
2023-04-28T17:18:09.938Z,40.66
2023-04-28T17:20:38.212Z,41.50
2023-04-28T17:23:04.793Z,41.14
2023-04-28T17:25:31.362Z,40.99
2023-04-28T17:27:59.639Z,41.57
2023-04-28T17:30:26.413Z,41.45
2023-04-28T17:32:53.030Z,42.12
2023-04-28T17:35:19.741Z,43.20
2023-04-28T17:37:46.325Z,43.34
2023-04-28T17:40:13.294Z,43.78
2023-04-28T17:42:40.002Z,44.83
2023-04-28T17:45:07.594Z,45.76
2023-04-28T17:47:34.497Z,44.47
2023-04-28T17:50:01.914Z,43.90
2023-04-28T17:52:28.806Z,44.40
2023-04-28T17:54:56.412Z,45.17
2023-04-28T17:57:22.936Z,44.53
2023-04-28T17:59:50.408Z,47.18
2023-04-28T18:02:18.481Z,45.51
2023-04-28T18:04:45.375Z,45.64
2023-04-28T18:07:12.156Z,45.08
2023-04-28T18:09:38.732Z,46.78
2023-04-28T18:12:05.627Z,46.26
2023-04-28T18:14:32.280Z,47.27
2023-04-28T18:16:59.240Z,49.33
2023-04-28T18:19:28.224Z,51.30
2023-04-28T18:21:56.875Z,55.52
2023-04-28T18:24:24.255Z,55.71
2023-04-28T18:26:50.873Z,55.82
2023-04-28T18:29:18.869Z,60.84
2023-04-28T18:31:46.257Z,60.63
2023-04-28T18:34:13.318Z,60.91
2023-04-28T18:36:40.097Z,62.86
2023-04-28T18:39:08.723Z,66.33
2023-04-28T18:41:36.476Z,66.26
2023-04-28T18:44:03.325Z,64.27
2023-04-28T18:46:30.206Z,63.97
2023-04-28T18:48:56.934Z,64.14
2023-04-28T18:51:23.638Z,69.48
2023-04-28T18:53:50.340Z,68.08
2023-04-28T18:56:17.294Z,66.21
2023-04-28T18:58:47.305Z,67.82
2023-04-28T19:01:15.395Z,72.72
2023-04-28T19:03:42.486Z,75.50
2023-04-28T19:06:09.376Z,76.50
2023-04-28T19:08:39.175Z,76.75
2023-04-28T19:11:09.595Z,77.97
2023-04-28T19:13:36.984Z,78.48
2023-04-28T19:16:04.781Z,80.55
2023-04-28T19:18:32.358Z,80.04
2023-04-28T19:21:03.056Z,78.91
2023-04-28T19:23:30.881Z,81.17
2023-04-28T19:25:58.982Z,82.32
2023-04-28T19:28:26.304Z,82.27
2023-04-28T19:30:59.348Z,83.24
2023-04-28T19:33:28.442Z,84.71
2023-04-28T19:35:55.413Z,84.06
2023-04-28T19:38:23.355Z,86.32
2023-04-28T19:40:53.695Z,84.82
2023-04-28T19:43:20.267Z,85.76
2023-04-28T19:45:47.124Z,84.62
2023-04-28T19:48:14.540Z,84.76
2023-04-28T19:50:42.261Z,86.68
2023-04-28T19:53:09.445Z,86.37
2023-04-28T19:55:36.515Z,88.28
2023-04-28T19:58:03.999Z,88.85
2023-04-28T20:00:32.488Z,87.91
2023-04-28T20:02:59.841Z,89.63
2023-04-28T20:05:26.841Z,89.22
2023-04-28T20:07:55.951Z,89.73
2023-04-28T20:10:23.716Z,89.42
2023-04-28T20:12:50.423Z,92.47
2023-04-28T20:15:18.512Z,92.01
2023-04-28T20:17:46.060Z,91.85
2023-04-28T20:20:12.974Z,92.60
2023-04-28T20:22:41.078Z,93.32
2023-04-28T20:25:10.490Z,93.94
2023-04-28T20:27:37.702Z,95.54
2023-04-28T20:30:04.907Z,95.60
2023-04-28T20:32:31.711Z,95.13
2023-04-28T20:34:58.337Z,94.39
2023-04-28T20:37:26.415Z,94.45
2023-04-28T20:39:53.265Z,94.17
2023-04-28T20:42:19.878Z,95.50
2023-04-28T20:44:46.639Z,95.59
2023-04-28T20:47:13.989Z,95.26
2023-04-28T20:49:40.584Z,94.71
2023-04-28T20:52:07.250Z,93.76
2023-04-28T20:54:36.000Z,95.73
2023-04-28T20:57:04.813Z,96.24
2023-04-28T20:59:32.785Z,96.98
2023-04-28T21:02:00.415Z,97.17
2023-04-28T21:04:28.235Z,97.74
2023-04-28T21:06:55.602Z,97.20
2023-04-28T21:09:24.971Z,97.04
2023-04-28T21:11:51.786Z,96.92
2023-04-28T21:14:18.418Z,97.51
2023-04-28T21:16:45.120Z,97.81
2023-04-28T21:19:11.702Z,98.09
2023-04-28T21:21:38.241Z,98.08
2023-04-28T21:24:09.236Z,97.65
2023-04-28T21:26:36.539Z,96.65
2023-04-28T21:29:03.338Z,96.86
2023-04-28T21:31:30.741Z,97.00
2023-04-28T21:33:57.596Z,97.13
2023-04-28T21:36:24.157Z,97.80
2023-04-28T21:38:50.748Z,98.20
2023-04-28T21:41:17.319Z,97.74
2023-04-28T21:43:43.861Z,98.61
2023-04-28T21:46:10.966Z,99.28
2023-04-28T21:48:37.637Z,100.00
2023-04-28T21:51:04.778Z,100.00
2023-04-28T21:53:31.355Z,99.90
2023-04-28T21:55:57.980Z,99.61
2023-04-28T21:58:24.748Z,99.34
2023-04-28T22:00:51.514Z,98.61
2023-04-28T22:03:18.820Z,98.21
2023-04-28T22:05:45.630Z,97.99
2023-04-28T22:08:13.341Z,98.05
2023-04-28T22:10:40.075Z,98.24
2023-04-28T22:13:06.973Z,97.53
2023-04-28T22:15:33.741Z,97.87
2023-04-28T22:18:00.449Z,97.40
2023-04-28T22:20:27.268Z,96.72
2023-04-28T22:22:54.229Z,97.35
2023-04-28T22:25:21.303Z,97.63
2023-04-28T22:27:47.902Z,96.82
2023-04-28T22:30:15.578Z,96.04
2023-04-28T22:32:44.760Z,97.19
2023-04-28T22:35:12.747Z,96.71
2023-04-28T22:37:39.906Z,97.25
2023-04-28T22:40:08.646Z,98.78
2023-04-28T22:42:37.008Z,98.58
2023-04-28T22:45:04.424Z,98.49
2023-04-28T22:47:31.160Z,98.76
2023-04-28T22:49:57.805Z,98.76
2023-04-28T22:52:24.589Z,99.16
2023-04-28T22:54:51.164Z,100.00
2023-04-28T22:57:17.756Z,99.57
2023-04-28T22:59:44.375Z,98.88
2023-04-28T23:02:13.230Z,99.53
2023-04-28T23:04:40.266Z,99.77
2023-04-28T23:07:07.764Z,99.88
2023-04-28T23:09:36.171Z,100.00
2023-04-28T23:12:03.674Z,100.00
2023-04-28T23:14:31.394Z,100.00
2023-04-28T23:16:58.007Z,100.00
2023-04-28T23:19:24.829Z,100.00
2023-04-28T23:21:51.445Z,100.00
2023-04-28T23:24:17.990Z,100.00
2023-04-28T23:26:44.527Z,100.00
2023-04-28T23:29:11.167Z,100.00
2023-04-28T23:31:39.899Z,100.00
2023-04-28T23:34:07.062Z,100.00
2023-04-28T23:36:33.693Z,100.00
2023-04-28T23:39:00.431Z,100.00
2023-04-28T23:41:27.948Z,100.00
2023-04-28T23:43:54.679Z,100.00
2023-04-28T23:46:21.502Z,100.00
2023-04-28T23:48:48.147Z,100.00
2023-04-28T23:51:14.949Z,100.00
2023-04-28T23:53:41.995Z,100.00
2023-04-28T23:56:08.593Z,100.00
2023-04-28T23:58:35.173Z,100.00
